SBRFSBMO

Guest
Details From SBRF - Recife Intl
To SBMO - Zumbi Dos Palmares
Flight Number -
Tags generated
Created
Modified
Stats Distance 98 nm / 181 km
Max Altitude 10,300 ft / 3,139 m
Waypoints 3
Social Downloads 2
Likes 0
Share VATSIM

Download

Looking for another format? Having issues loading an existing format? Contact us
Advertisement - Login to hide

Notes

Basic altitude profile: - Ascent Rate: 1200ft/min - Ascent Speed: 120kts - Cruise Altitude: 12000ft - Cruise Speed: 180kts - Descent Rate: 700ft/min - Descent Speed: 160kts Options: - Use NATs: no - Use PACOTS: no - Use low airways: yes - Use high airways: no

Route

SBRF UKARI SBMO

ID Type Via Altitude Latitude Longitude Leg Dist Tot Dist Heading (true) Name
O SBRF APT - 0 ft / 0 m -8.12790˚ -34.92298˚ - 0 nm - Recife Intl
UKARI FIX - 10,300 ft / 3,139 m -8.83133˚ -35.36300˚ 49 nm 49 nm 212° / 212° -
O SBMO APT - 0 ft / 0 m -9.51081˚ -35.79168˚ 48 nm 97 nm 212° / 212° Zumbi Dos Palmares

Altitude Profile

Advertisement - Login to hide

SBRF

Details ICAO SBRF (REC)
Name Recife Intl
Region Brazil
Timezone America/Recife (UTC-3.0)
Stats Elevation 33 ft / 10 m (AMSL)
Location -8.127896° -34.922981°
Runways 2
Magnetic Variation 22.074° W

METAR

SBRF 270100Z 14010KT 9999 SCT025 SCT100 26/20 Q1015

Decode

TAF

TAF SBRF 262200Z 2700/2724 15008KT 8000 SCT022 TN24/2705Z TX29/2717Z PROB30 TEMPO 2707/2709 5000 SHRA SCT010 BKN017 RMK PEU

Decode

Departure Runways

ID Width Length Bearing (true) Bearing (mag) Surface Threshold Offset Overrun Length
01 98 ft / 30 m 4,979 ft / 1,518 m 304.20° 326.27° Asphalt 300 ft / 91 m 0 ft / 0 m
18 148 ft / 45 m 9,915 ft / 3,022 m 161.91° 183.98° Asphalt 1,225 ft / 373 m 0 ft / 0 m
19 98 ft / 30 m 4,979 ft / 1,518 m 124.20° 146.27° Asphalt 300 ft / 91 m 0 ft / 0 m
36 148 ft / 45 m 9,915 ft / 3,022 m 341.91° 3.98° Asphalt 0 ft / 0 m 350 ft / 107 m

SBMO

Details ICAO SBMO (MCZ)
Name Zumbi Dos Palmares
Region Brazil
Timezone America/Maceio (UTC-3.0)
Stats Elevation 387 ft / 118 m (AMSL)
Location -9.510808° -35.791677°
Runways 1
Magnetic Variation 22.592° W

METAR

SBMO 270100Z 12002KT 9999 SCT017 23/21 Q1017

Decode

TAF

TAF SBMO 262200Z 2700/2724 11005KT 8000 SCT020 TN21/2707Z TX27/2718Z BECMG 2702/2703 32004KT BECMG 2710/2712 13009KT BKN015 PROB40 2712/2714 5000 SHRA BKN012 BECMG 2714/2716 SCT020 RMK PEU

Decode

Destination Runways

ID Width Length Bearing (true) Bearing (mag) Surface Threshold Offset Overrun Length
12 148 ft / 45 m 8,528 ft / 2,599 m 100.73° 123.32° Asphalt 0 ft / 0 m 210 ft / 64 m
30 148 ft / 45 m 8,528 ft / 2,599 m 280.73° 303.32° Asphalt 0 ft / 0 m 210 ft / 64 m

Approach Navaids

Runway Type Ident Frequency Range Bearing (true) Bearing (mag) Slope Elevation
12 Localiser IMO 109.30 MHz 18 nm / 33 km 100.77° 123.36° - 387 ft / 118 m (AMSL)
12 Glidescope IMO 109.30 MHz 10 nm / 19 km 100.73° 123.32° 3.03° 387 ft / 118 m (AMSL)
12 DME IMO 109.30 MHz 18 nm / 33 km - - - 387 ft / 118 m (AMSL)

Popular Alternatives